• Join FlightAware (Why Join?)
  • Login
  • US Flag 
10:27AM EDT


 

Airport Tracker/Info


-or-


 

Live Flight TrackerFlight Track Log ✈ TAM3890 ✈ 26-Jun-2013 ✈ SBBE / BEL - SBEG / MAO

Flight Track Log - Related Links

Times and Time Zones

All times are in EDT time to prevent confusion due to time zone crossing. See the TAM3890 flight status page for this flight to view local times or setup timezone preferences in your user account.

Time Position Orientation Groundspeed Altitude Reporting Facility
EDT Latitude Longitude Course Direction KTS MPH feet Rate Location/Type
11:47AM -1.3660 -48.6610 263° West 293 337 7,000  Level FlightAware
11:47AM -1.3750 -48.7090 259° West 299 344 8,500 2,820 Climbing FlightAware
11:48AM -1.3820 -48.7540 261° West 303 349 9,700 1,320 Climbing FlightAware
11:49AM -1.3940 -48.8220 260° West 313 360 10,500 480 Climbing FlightAware
11:49AM -1.4020 -48.8670 260° West 313 360 10,500  Level FlightAware
11:50AM -1.4130 -48.9250 259° West 313 360 10,500 1,440 Level FlightAware
11:53AM -1.4561 -49.2134 261° West  Level Estimated
11:54AM -1.4729 -49.3257 261° West  Level Estimated
11:55AM -1.4897 -49.4381 261° West  Level Estimated
11:56AM -1.5065 -49.5504 262° West  Level Estimated
11:57AM -1.5232 -49.6628 262° West  Level Estimated
11:58AM -1.5400 -49.7751 262° West  Level Estimated
11:59AM -1.5568 -49.8875 262° West  Level Estimated
12:00PM -1.5735 -49.9999 262° West  Level Estimated
12:00PM -1.6540 -50.1030 262° West 452 520 26,300  Level FlightAware
12:02PM -1.6831 -50.3073 262° West  Level Estimated
12:02PM -1.6970 -50.3620 262° West 478 550 27,800  Level FlightAware
12:02PM -1.7120 -50.4530 261° West 488 562 28,100 540 Climbing FlightAware
12:03PM -1.7340 -50.5840 260° West 497 572 28,700 720 Climbing FlightAware
12:04PM -1.7560 -50.7170 261° West 495 570 29,600 900 Climbing FlightAware
12:05PM -1.7690 -50.8000 261° West 493 567 30,200 780 Climbing FlightAware
12:06PM -1.7890 -50.9190 260° West 497 572 30,800 720 Climbing FlightAware
12:07PM -1.8190 -51.0990 261° West 499 574 31,800 720 Climbing FlightAware
12:08PM -1.8340 -51.1940 261° West 500 575 32,300 720 Climbing FlightAware
12:09PM -1.8490 -51.2840 261° West 499 574 32,800 900 Climbing FlightAware
12:09PM -1.8640 -51.3750 261° West 495 570 33,500 840 Climbing FlightAware
12:10PM -1.8790 -51.4680 261° West 493 567 34,000 300 Climbing FlightAware
12:11PM -1.8940 -51.5570 260° West 490 564 34,000  Level FlightAware
12:11PM -1.9100 -51.6540 261° West 489 563 34,000  Level FlightAware
12:12PM -1.9250 -51.7470 261° West 487 560 34,000  Level FlightAware
12:13PM -1.9430 -51.8530 260° West 485 558 34,000  Level FlightAware
12:13PM -1.9560 -51.9330 261° West 484 557 34,000  Level FlightAware
12:14PM -1.9710 -52.0200 260° West 484 557 34,000 -420 Level FlightAware
12:17PM -2.0027 -52.2533 262° West  Level Estimated
12:18PM -2.0164 -52.3540 262° West  Level Estimated
12:19PM -2.0300 -52.4548 262° West  Level Estimated
12:20PM -2.0437 -52.5555 262° West  Level Estimated
12:21PM -2.0573 -52.6562 262° West  Level Estimated
12:22PM -2.0710 -52.7569 262° West  Level Estimated
12:23PM -2.0846 -52.8577 262° West  Level Estimated
12:24PM -2.0982 -52.9584 262° West  Level Estimated
12:25PM -2.1119 -53.0591 262° West  Level Estimated
12:26PM -2.1255 -53.1599 262° West  Level Estimated
12:27PM -2.1391 -53.2606 262° West  Level Estimated
12:28PM -2.1527 -53.3613 262° West  Level Estimated
12:29PM -2.1663 -53.4621 262° West  Level Estimated
12:30PM -2.1799 -53.5628 262° West  Level Estimated
12:31PM -2.1935 -53.6636 262° West  Level Estimated
12:32PM -2.2071 -53.7643 262° West  Level Estimated
12:33PM -2.2206 -53.8650 262° West  Level Estimated
12:34PM -2.2342 -53.9658 262° West  Level Estimated
12:35PM -2.2478 -54.0665 262° West  Level Estimated
12:36PM -2.2613 -54.1673 262° West  Level Estimated
12:37PM -2.2749 -54.2680 262° West  Level Estimated
12:38PM -2.2884 -54.3688 262° West  Level Estimated
12:39PM -2.3019 -54.4696 262° West  Level Estimated
12:40PM -2.3155 -54.5703 262° West  Level Estimated
12:41PM -2.3290 -54.6711 262° West  Level Estimated
12:42PM -2.3425 -54.7718 262° West  Level Estimated
12:43PM -2.3560 -54.8726 262° West  Level Estimated
12:44PM -2.3695 -54.9734 262° West  Level Estimated
12:45PM -2.3830 -55.0741 262° West  Level Estimated
12:46PM -2.3965 -55.1749 262° West  Level Estimated
12:47PM -2.4099 -55.2757 262° West  Level Estimated
12:48PM -2.4234 -55.3764 262° West  Level Estimated
12:49PM -2.4369 -55.4772 262° West  Level Estimated
12:50PM -2.4503 -55.5780 262° West  Level Estimated
12:51PM -2.4637 -55.6788 262° West  Level Estimated
12:52PM -2.4772 -55.7796 262° West  Level Estimated
12:53PM -2.4906 -55.8803 262° West  Level Estimated
12:54PM -2.5040 -55.9811 262° West  Level Estimated
12:55PM -2.5174 -56.0819 262° West  Level Estimated
12:56PM -2.5308 -56.1827 262° West  Level Estimated
12:57PM -2.5442 -56.2835 262° West  Level Estimated
12:58PM -2.5576 -56.3843 262° West  Level Estimated
12:59PM -2.5710 -56.4851 262° West  Level Estimated
01:00PM -2.5844 -56.5859 262° West  Level Estimated
01:01PM -2.5977 -56.6867 262° West  Level Estimated
01:02PM -2.6111 -56.7875 262° West  Level Estimated
01:03PM -2.6244 -56.8883 262° West  Level Estimated
01:04PM -2.6378 -56.9891 262° West  Level Estimated
01:05PM -2.6511 -57.0899 262° West  Level Estimated
01:06PM -2.6644 -57.1907 262° West  Level Estimated
01:07PM -2.6778 -57.2915 262° West  Level Estimated
01:08PM -2.6911 -57.3924 262° West  Level Estimated
01:09PM -2.7044 -57.4932 262° West  Level Estimated
01:10PM -2.7177 -57.5940 262° West  Level Estimated
01:11PM -2.7309 -57.6948 262° West  Level Estimated
01:12PM -2.7442 -57.7956 262° West  Level Estimated
01:13PM -2.7575 -57.8965 262° West  Level Estimated
01:13PM -3.0390 -59.6350 262° West 312 359 10,700  Level FlightAware
01:14PM -2.7707 -57.9973 262° West  Level Estimated
01:14PM -3.0590 -59.6910 250° West 304 350 9,800  Level FlightAware
01:14PM -3.0740 -59.7340 251° West 302 348 8,900 -1,620 Descending FlightAware
01:14PM -3.0770 -59.7440 253° West 302 348 8,700 -1,260 Descending FlightAware
01:16PM -3.1130 -59.8480 251° West 291 335 6,800 -1,500 Descending FlightAware
01:17PM -3.1330 -59.9050 251° West 287 330 5,600 -1,920 Descending FlightAware
01:17PM -3.1470 -59.9440 250° West 286 329 4,800 -1,680 Descending FlightAware
01:17PM -3.1590 -59.9780 251° West 283 326 4,000 -1,620 Descending FlightAware
01:18PM -3.1630 -60.0000 260° West 279 321 3,600 -1,080 Descending FlightAware
01:18PM -3.1600 -60.0480 274° West 264 304 3,000 -600 Descending FlightAware
01:19PM -3.1580 -60.0790 274° West 237 273 3,000  Level FlightAware
01:19PM -3.1550 -60.1090 276° West 229 264 3,000  Level FlightAware
01:20PM -3.1530 -60.1350 274° West 228 262 3,000  Level FlightAware
01:20PM -3.1510 -60.1510 277° West 224 258 3,000  Level FlightAware
01:20PM -3.1490 -60.1790 274° West 209 241 3,000  Level FlightAware
01:21PM -3.1470 -60.2060 274° West 206 237 3,000  Level FlightAware
01:21PM -3.1450 -60.2330 274° West 206 237 3,000  Level FlightAware
01:22PM -3.1410 -60.2410 297° West 203 234 3,000  Level FlightAware
01:22PM -3.1270 -60.2520 322° Northwest 202 232 3,000 -180 Level FlightAware
01:22PM -3.1030 -60.2590 344° North 199 229 2,900 -300 Descending FlightAware
01:23PM -3.0670 -60.2500 14° North 195 224 2,700 -360 Descending FlightAware
01:24PM -3.0520 -60.2330 49° Northeast 197 227 2,500 -360 Descending FlightAware
01:24PM -3.0380 -60.2130 55° Northeast 200 230 2,400 -240 Descending FlightAware
01:24PM -3.0380 -60.1850 90° East 199 229 2,300 -240 Descending FlightAware
01:25PM -3.0380 -60.1630 90° East 191 220 2,200 -720 Descending FlightAware
01:25PM -3.0380 -60.1390 90° East 186 214 1,700 -1,020 Descending FlightAware
01:26PM -3.0380 -60.1170 90° East 161 185 1,300 -780 Descending FlightAware
01:26PM -3.0380 -60.1040 90° East 153 176 1,100 -780 Descending FlightAware
01:26PM -3.0380 -60.0890 90° East 152 175 800 -840 Descending FlightAware
01:27PM -3.0390 -60.0670 93° East 154 177 400 -420 Descending FlightAware
01:27PM -3.0390 -60.0510 90° East 154 177 400  Level FlightAware
01:30PM -3.0386 -60.0497 73° East  Level Estimated
01:30PM -3.0360 -60.0420 73° East 24 28  Level FlightAware
01:32PM -3.0386 -60.0497 251° West  Level Estimated
01:33PM -3.0386 -60.0497 225° Southwest  Level Estimated
01:34PM -3.0386 -60.0497 225° Southwest  Level Estimated
01:35PM -3.0386 -60.0497 225° Southwest  Level Estimated
01:36PM -3.0386 -60.0497 225° Southwest  Level Estimated
01:37PM -3.0386 -60.0497 225° Southwest  Level Estimated
01:38PM -3.0386 -60.0497 225° Southwest  Level Estimated
01:39PM -3.0386 -60.0497 225° Southwest  Level Estimated
01:40PM -3.0386 -60.0497 225° Southwest  Level Estimated
01:41PM -3.0386 -60.0497 225° Southwest  Level Estimated
01:42PM -3.0386 -60.0497 225° Southwest  Level Estimated
01:43PM -3.0386 -60.0497 225° Southwest  Level Estimated
01:44PM -3.0386 -60.0497 225° Southwest  Level Estimated
01:45PM -3.0386 -60.0497 225° Southwest  Level Estimated
01:46PM -3.0386 -60.0497 225° Southwest  Level Estimated
01:47PM -3.0386 -60.0497 225° Southwest  Level Estimated
01:48PM -3.0386 -60.0497 225° Southwest  Level Estimated
01:49PM -3.0386 -60.0497 225° Southwest  Level Estimated
01:50PM -3.0386 -60.0497 225° Southwest  Level Estimated
01:51PM -3.0386 -60.0497 225° Southwest  Level Estimated
01:52PM -3.0386 -60.0497 225° Southwest  Level Estimated
01:53PM -3.0386 -60.0497 225° Southwest  Level Estimated